createdAt,value
2019-04-29T00:00:07.556Z,0.00
2019-04-29T00:01:07.589Z,0.00
2019-04-29T00:02:07.547Z,0.00
2019-04-29T00:03:07.582Z,0.00
2019-04-29T00:04:07.579Z,0.00
2019-04-29T00:05:07.537Z,0.00
2019-04-29T00:06:07.547Z,0.00
2019-04-29T00:07:07.540Z,0.00
2019-04-29T00:08:07.505Z,0.00
2019-04-29T00:09:07.492Z,0.00
2019-04-29T00:10:07.506Z,0.00
2019-04-29T00:11:07.447Z,0.00
2019-04-29T00:12:07.435Z,0.00
2019-04-29T00:13:07.450Z,0.00
2019-04-29T00:14:07.466Z,0.00
2019-04-29T00:15:07.420Z,0.00
2019-04-29T00:16:07.411Z,0.00
2019-04-29T00:17:07.386Z,0.00
2019-04-29T00:18:07.404Z,0.00
2019-04-29T00:19:07.418Z,0.00
2019-04-29T00:20:07.371Z,0.00
2019-04-29T00:21:07.369Z,0.00
2019-04-29T00:22:07.373Z,0.00
2019-04-29T00:23:07.340Z,0.00
2019-04-29T00:24:07.343Z,0.00
2019-04-29T00:25:07.311Z,0.00
2019-04-29T00:26:07.329Z,0.00
2019-04-29T00:27:07.301Z,0.00
2019-04-29T00:28:07.257Z,0.00
2019-04-29T00:29:07.265Z,0.00
2019-04-29T00:30:07.267Z,0.00
2019-04-29T00:31:07.271Z,0.00
2019-04-29T00:32:07.227Z,0.00
2019-04-29T00:33:07.254Z,0.00
2019-04-29T00:34:07.236Z,0.00
2019-04-29T00:35:07.233Z,0.00
2019-04-29T00:36:07.271Z,0.00
2019-04-29T00:37:07.214Z,0.00
2019-04-29T00:38:07.154Z,0.00
2019-04-29T00:39:07.195Z,0.00
2019-04-29T00:40:07.207Z,0.00
2019-04-29T00:41:07.223Z,0.00
2019-04-29T00:42:07.113Z,0.00
2019-04-29T00:43:07.203Z,0.00
2019-04-29T00:44:07.145Z,0.00
2019-04-29T00:45:07.157Z,0.00
2019-04-29T00:46:07.141Z,0.00
2019-04-29T00:47:07.072Z,0.00
2019-04-29T00:48:07.132Z,0.00
2019-04-29T00:49:07.049Z,0.00
2019-04-29T00:50:07.073Z,0.00
2019-04-29T00:51:07.046Z,0.00
2019-04-29T00:52:07.017Z,0.00
2019-04-29T00:53:07.037Z,0.00
2019-04-29T00:54:07.014Z,0.00
2019-04-29T00:55:07.025Z,0.00
2019-04-29T00:56:07.018Z,0.00
2019-04-29T00:57:07.007Z,0.00
2019-04-29T00:58:07.009Z,0.00
2019-04-29T00:59:06.954Z,0.00
2019-04-29T01:00:06.925Z,0.00
2019-04-29T01:01:07.018Z,0.00
2019-04-29T01:02:06.957Z,0.00
2019-04-29T01:03:06.902Z,0.00
2019-04-29T01:04:06.875Z,0.00
2019-04-29T01:05:06.885Z,0.00
2019-04-29T01:06:06.857Z,0.00
2019-04-29T01:07:06.865Z,0.00
2019-04-29T01:08:06.856Z,0.00
2019-04-29T01:09:06.839Z,0.00
2019-04-29T01:10:06.820Z,0.00
2019-04-29T01:11:06.843Z,0.00
2019-04-29T01:12:06.857Z,0.00
2019-04-29T01:13:06.802Z,0.00
2019-04-29T01:14:06.777Z,0.00
2019-04-29T01:15:06.804Z,0.00
2019-04-29T01:16:06.786Z,0.00
2019-04-29T01:17:06.826Z,0.00
2019-04-29T01:18:06.760Z,0.00
2019-04-29T01:19:06.733Z,0.00
2019-04-29T01:20:06.748Z,0.00
2019-04-29T01:21:06.819Z,0.00
2019-04-29T01:22:06.724Z,0.00
2019-04-29T01:23:06.766Z,0.00
2019-04-29T01:24:06.667Z,0.00
2019-04-29T01:25:06.708Z,0.00
2019-04-29T01:26:06.667Z,0.00
2019-04-29T01:27:06.759Z,0.00
2019-04-29T01:28:06.690Z,0.00
2019-04-29T01:29:06.623Z,0.00
2019-04-29T01:30:06.605Z,0.00
2019-04-29T01:31:06.596Z,0.00
2019-04-29T01:32:06.613Z,0.00
2019-04-29T01:33:06.602Z,0.00
2019-04-29T01:34:06.629Z,0.00
2019-04-29T01:35:06.609Z,0.00
2019-04-29T01:36:06.638Z,0.00
2019-04-29T01:37:06.544Z,0.00
2019-04-29T01:38:06.568Z,0.00
2019-04-29T01:39:06.586Z,0.00
2019-04-29T01:40:06.516Z,0.00
2019-04-29T01:41:06.508Z,0.00
2019-04-29T01:42:06.485Z,0.00
2019-04-29T01:43:06.534Z,0.00
2019-04-29T01:44:06.512Z,0.00
2019-04-29T01:45:06.500Z,0.00
2019-04-29T01:46:06.464Z,0.00
2019-04-29T01:47:06.518Z,0.00
2019-04-29T01:48:06.444Z,0.00
2019-04-29T01:49:06.430Z,0.00
2019-04-29T01:50:06.411Z,0.00
2019-04-29T01:51:06.378Z,0.00
2019-04-29T01:52:06.420Z,0.00
2019-04-29T01:53:06.428Z,0.00
2019-04-29T01:54:06.364Z,0.00
2019-04-29T01:55:06.363Z,0.00
2019-04-29T01:56:06.399Z,0.00
2019-04-29T01:57:06.387Z,0.00
2019-04-29T01:58:06.396Z,0.00
2019-04-29T01:59:06.324Z,0.00
2019-04-29T02:00:06.334Z,0.00
2019-04-29T02:01:06.306Z,0.00
2019-04-29T02:02:06.285Z,0.00
2019-04-29T02:03:06.342Z,0.00
2019-04-29T02:04:06.361Z,0.00
2019-04-29T02:05:06.242Z,0.00
2019-04-29T02:06:06.263Z,0.00
2019-04-29T02:07:06.216Z,0.00
2019-04-29T02:08:06.250Z,0.00
2019-04-29T02:09:06.269Z,0.00
2019-04-29T02:10:06.231Z,0.00
2019-04-29T02:11:06.236Z,0.00
2019-04-29T02:12:06.222Z,0.00
2019-04-29T02:13:06.268Z,0.00
2019-04-29T02:14:06.231Z,0.00
2019-04-29T02:15:06.220Z,0.00
2019-04-29T02:16:06.154Z,0.00
2019-04-29T02:17:06.196Z,0.00
2019-04-29T02:18:06.226Z,0.00
2019-04-29T02:19:06.135Z,0.00
2019-04-29T02:20:06.136Z,0.00
2019-04-29T02:21:06.180Z,0.00
2019-04-29T02:22:06.132Z,0.00
2019-04-29T02:23:06.138Z,0.00
2019-04-29T02:24:06.088Z,0.00
2019-04-29T02:25:06.137Z,0.00
2019-04-29T02:26:06.062Z,0.00
2019-04-29T02:27:06.149Z,0.00
2019-04-29T02:28:06.122Z,0.00
2019-04-29T02:29:06.060Z,0.00
2019-04-29T02:30:06.008Z,0.00
2019-04-29T02:31:06.032Z,0.00
2019-04-29T02:32:05.994Z,0.00
2019-04-29T02:33:06.064Z,0.00
2019-04-29T02:34:05.993Z,0.00
2019-04-29T02:35:05.978Z,0.00
2019-04-29T02:36:06.113Z,0.00
2019-04-29T02:37:05.933Z,0.00
2019-04-29T02:38:05.936Z,0.00
2019-04-29T02:39:05.982Z,0.00
2019-04-29T02:40:05.974Z,0.00
2019-04-29T02:41:05.982Z,0.00
2019-04-29T02:42:05.928Z,0.00
2019-04-29T02:43:05.859Z,0.00
2019-04-29T02:44:05.941Z,0.00
2019-04-29T02:45:05.873Z,0.00
2019-04-29T02:46:05.917Z,0.00
2019-04-29T02:47:05.902Z,0.00
2019-04-29T02:48:05.956Z,0.00
2019-04-29T02:49:05.848Z,0.00
2019-04-29T02:50:05.882Z,0.00
2019-04-29T02:51:05.784Z,0.00
2019-04-29T02:52:05.877Z,0.00
2019-04-29T02:53:05.858Z,0.00
2019-04-29T02:54:05.854Z,0.00
2019-04-29T02:55:05.942Z,0.00
2019-04-29T02:56:05.796Z,0.00
2019-04-29T02:57:05.880Z,0.00
2019-04-29T02:58:05.849Z,0.00
2019-04-29T02:59:05.803Z,0.00
2019-04-29T03:00:05.810Z,0.00
2019-04-29T03:01:05.712Z,0.00
2019-04-29T03:02:05.775Z,0.00
2019-04-29T03:03:05.697Z,0.00
2019-04-29T03:04:05.733Z,0.00
2019-04-29T03:05:05.620Z,0.00
2019-04-29T03:06:05.815Z,0.00
2019-04-29T03:07:05.747Z,0.00
2019-04-29T03:08:05.775Z,0.00
2019-04-29T03:09:05.717Z,0.00
2019-04-29T03:10:05.697Z,0.00
2019-04-29T03:11:05.603Z,0.00
2019-04-29T03:12:05.596Z,0.00
2019-04-29T03:13:05.621Z,0.00
2019-04-29T03:14:05.682Z,0.00
2019-04-29T03:15:05.574Z,0.00
2019-04-29T03:16:05.622Z,0.00
2019-04-29T03:17:05.738Z,0.00
2019-04-29T03:18:05.609Z,0.00
2019-04-29T03:19:05.700Z,0.00
2019-04-29T03:20:05.688Z,0.00
2019-04-29T03:21:05.636Z,4.00
2019-04-29T03:22:05.536Z,4.00
2019-04-29T03:23:05.880Z,4.00
2019-04-29T03:24:05.868Z,0.00
2019-04-29T03:25:05.501Z,4.00
2019-04-29T03:26:05.609Z,4.00
2019-04-29T03:27:05.664Z,4.00
2019-04-29T03:28:05.548Z,4.00
2019-04-29T03:29:05.427Z,8.00
2019-04-29T03:30:05.752Z,4.00
2019-04-29T03:31:05.461Z,8.00
2019-04-29T03:32:05.444Z,8.00
2019-04-29T03:33:05.519Z,12.00
2019-04-29T03:34:05.528Z,12.00
2019-04-29T03:35:14.161Z,16.00
2019-04-29T03:36:05.251Z,20.00
2019-04-29T03:37:05.250Z,24.00
2019-04-29T03:38:05.243Z,24.00
2019-04-29T03:39:05.226Z,28.00
2019-04-29T03:40:05.242Z,32.00
2019-04-29T03:41:05.277Z,36.00
2019-04-29T03:42:07.421Z,40.00
2019-04-29T03:43:05.179Z,48.00
2019-04-29T03:44:05.172Z,52.00
2019-04-29T03:45:05.196Z,60.00
2019-04-29T03:46:05.151Z,68.00
2019-04-29T03:47:05.149Z,76.00
2019-04-29T03:48:05.120Z,88.00
2019-04-29T03:49:05.109Z,96.00
2019-04-29T03:50:05.123Z,104.00
2019-04-29T03:51:05.110Z,116.00
2019-04-29T03:52:05.087Z,128.00
2019-04-29T03:53:05.165Z,144.00
2019-04-29T03:54:05.068Z,156.00
2019-04-29T03:55:05.096Z,168.00
2019-04-29T03:56:05.040Z,184.00
2019-04-29T03:57:05.026Z,200.00
2019-04-29T03:58:05.014Z,216.00
2019-04-29T03:59:05.009Z,232.00
2019-04-29T04:00:05.007Z,248.00
2019-04-29T04:01:05.021Z,268.00
2019-04-29T04:02:04.975Z,288.00
2019-04-29T04:03:04.968Z,312.00
2019-04-29T04:04:04.961Z,336.00
2019-04-29T04:05:04.932Z,360.00
2019-04-29T04:06:04.950Z,388.00
2019-04-29T04:07:04.950Z,416.00
2019-04-29T04:08:04.901Z,444.00
2019-04-29T04:09:06.577Z,472.00
2019-04-29T04:10:04.909Z,504.00
2019-04-29T04:11:04.906Z,540.00
2019-04-29T04:12:04.885Z,568.00
2019-04-29T04:13:04.859Z,604.00
2019-04-29T04:14:04.850Z,644.00
2019-04-29T04:15:04.849Z,688.00
2019-04-29T04:16:04.861Z,728.00
2019-04-29T04:17:04.820Z,780.00
2019-04-29T04:18:04.822Z,832.00
2019-04-29T04:19:04.808Z,888.00
2019-04-29T04:20:04.796Z,952.00
2019-04-29T04:21:04.779Z,1020.00
2019-04-29T04:22:04.812Z,1092.00
2019-04-29T04:23:04.763Z,1168.00
2019-04-29T04:24:04.735Z,1244.00
2019-04-29T04:25:04.737Z,1324.00
2019-04-29T04:26:04.738Z,1392.00
2019-04-29T04:27:04.721Z,1456.00
2019-04-29T04:28:04.733Z,1508.00
2019-04-29T04:29:04.683Z,1556.00
2019-04-29T04:30:04.698Z,1588.00
2019-04-29T04:31:07.069Z,1612.00
2019-04-29T04:32:04.664Z,1640.00
2019-04-29T04:33:04.671Z,1668.00
2019-04-29T04:34:04.648Z,1700.00
2019-04-29T04:35:04.631Z,1736.00
2019-04-29T04:36:04.629Z,1776.00
2019-04-29T04:37:04.612Z,1812.00
2019-04-29T04:38:04.625Z,1852.00
2019-04-29T04:39:04.583Z,1900.00
2019-04-29T04:40:04.596Z,1952.00
2019-04-29T04:41:04.569Z,2012.00
2019-04-29T04:42:04.548Z,2084.00
2019-04-29T04:43:04.569Z,2156.00
2019-04-29T04:44:04.530Z,2236.00
2019-04-29T04:45:04.525Z,2324.00
2019-04-29T04:46:04.530Z,2444.00
2019-04-29T04:47:04.500Z,2580.00
2019-04-29T04:48:04.519Z,2728.00
2019-04-29T04:49:04.494Z,2884.00
2019-04-29T04:50:04.485Z,3044.00
2019-04-29T04:51:04.466Z,3180.00
2019-04-29T04:52:04.452Z,3296.00
2019-04-29T04:53:04.428Z,3416.00
2019-04-29T04:54:04.440Z,3492.00
2019-04-29T04:55:04.418Z,3532.00
2019-04-29T04:56:04.416Z,3572.00
2019-04-29T04:57:04.404Z,3588.00
2019-04-29T04:58:04.395Z,3668.00
2019-04-29T04:59:04.410Z,3736.00
2019-04-29T05:00:04.367Z,3732.00
2019-04-29T05:01:04.354Z,3688.00
2019-04-29T05:02:04.344Z,3636.00
2019-04-29T05:03:04.336Z,3564.00
2019-04-29T05:04:04.330Z,3524.00
2019-04-29T05:05:04.339Z,3504.00
2019-04-29T05:06:04.293Z,3612.00
2019-04-29T05:07:04.292Z,3748.00
2019-04-29T05:08:04.272Z,3848.00
2019-04-29T05:09:04.268Z,4004.00
2019-04-29T05:10:04.273Z,4196.00
2019-04-29T05:11:04.237Z,4312.00
2019-04-29T05:12:04.233Z,4404.00
2019-04-29T05:13:04.217Z,4536.00
2019-04-29T05:14:04.207Z,4728.00
2019-04-29T05:15:04.247Z,4872.00
2019-04-29T05:16:04.187Z,5040.00
2019-04-29T05:17:04.175Z,5236.00
2019-04-29T05:18:04.158Z,5436.00
2019-04-29T05:19:04.153Z,5652.00
2019-04-29T05:20:04.167Z,5836.00
2019-04-29T05:21:04.153Z,6040.00
2019-04-29T05:22:04.123Z,6292.00
2019-04-29T05:23:04.115Z,6560.00
2019-04-29T05:24:04.113Z,6812.00
2019-04-29T05:25:04.088Z,7024.00
2019-04-29T05:26:04.111Z,7188.00
2019-04-29T05:27:04.073Z,7288.00
2019-04-29T05:28:04.070Z,7344.00
2019-04-29T05:29:04.051Z,7364.00
2019-04-29T05:30:04.041Z,7376.00
2019-04-29T05:31:04.038Z,7436.00
2019-04-29T05:32:04.039Z,7536.00
2019-04-29T05:33:11.847Z,7608.00
2019-04-29T05:34:11.850Z,7764.00
2019-04-29T05:35:04.011Z,7920.00
2019-04-29T05:36:11.786Z,8004.00
2019-04-29T05:37:03.985Z,8152.00
2019-04-29T05:38:03.964Z,8440.00
2019-04-29T05:39:03.937Z,8792.00
2019-04-29T05:40:03.935Z,9008.00
2019-04-29T05:41:03.934Z,8992.00
2019-04-29T05:42:07.666Z,8840.00
2019-04-29T05:43:05.210Z,8716.00
2019-04-29T05:44:03.885Z,8680.00
2019-04-29T05:45:03.901Z,8872.00
2019-04-29T05:46:07.157Z,9360.00
2019-04-29T05:47:03.861Z,9848.00
2019-04-29T05:48:03.878Z,10320.00
2019-04-29T05:49:07.319Z,10524.00
2019-04-29T05:50:06.410Z,10456.00
2019-04-29T05:51:03.818Z,10144.00
2019-04-29T05:52:03.863Z,10016.00
2019-04-29T05:53:03.813Z,10160.00
2019-04-29T05:54:03.778Z,10420.00
2019-04-29T05:55:13.780Z,10624.00
2019-04-29T05:56:13.144Z,10644.00
2019-04-29T05:57:11.562Z,10960.00
2019-04-29T05:58:12.340Z,11308.00
2019-04-29T05:59:03.736Z,11236.00
2019-04-29T06:00:03.719Z,10880.00
2019-04-29T06:01:03.708Z,10764.00
2019-04-29T06:02:03.763Z,10924.00
2019-04-29T06:03:03.723Z,10820.00
2019-04-29T06:04:03.672Z,11160.00
2019-04-29T06:05:03.676Z,11388.00
2019-04-29T06:06:12.412Z,11176.00
2019-04-29T06:07:03.671Z,10956.00
2019-04-29T06:08:03.689Z,11084.00
2019-04-29T06:09:03.618Z,12396.00
2019-04-29T06:10:03.612Z,13640.00
2019-04-29T06:11:03.613Z,14428.00
2019-04-29T06:12:03.594Z,14972.00
2019-04-29T06:13:03.655Z,15512.00
2019-04-29T06:14:03.607Z,16320.00
2019-04-29T06:15:03.578Z,16864.00
2019-04-29T06:16:03.542Z,16544.00
2019-04-29T06:17:11.379Z,17216.00
2019-04-29T06:18:13.168Z,18144.00
2019-04-29T06:19:11.342Z,15268.00
2019-04-29T06:20:13.149Z,16256.00
2019-04-29T06:22:13.828Z,15460.00
2019-04-29T06:23:13.813Z,15032.00
2019-04-29T06:24:13.776Z,15376.00
2019-04-29T06:25:13.765Z,13832.00
2019-04-29T06:26:13.761Z,14792.00
2019-04-29T06:27:13.752Z,14644.00
2019-04-29T06:28:26.379Z,14004.00
2019-04-29T06:30:24.020Z,15136.00
2019-04-29T06:31:24.002Z,14120.00
2019-04-29T06:32:32.835Z,13196.00
2019-04-29T06:33:28.482Z,14392.00
2019-04-29T06:34:24.974Z,14708.00
2019-04-29T06:35:23.973Z,15508.00
2019-04-29T06:36:23.988Z,16992.00
2019-04-29T06:37:23.943Z,17824.00
2019-04-29T06:38:23.920Z,19136.00
2019-04-29T06:39:23.929Z,19904.00
2019-04-29T06:40:23.907Z,18944.00
2019-04-29T06:41:31.735Z,18560.00
2019-04-29T06:42:33.492Z,18336.00
2019-04-29T06:43:24.548Z,18560.00
2019-04-29T06:44:23.874Z,18016.00
2019-04-29T06:45:31.678Z,17216.00
2019-04-29T06:46:31.646Z,16768.00
2019-04-29T06:47:23.836Z,16544.00
2019-04-29T06:48:23.834Z,16136.00
2019-04-29T06:49:23.822Z,16036.00
2019-04-29T06:50:23.804Z,16576.00
2019-04-29T06:51:23.808Z,16704.00
2019-04-29T06:52:23.786Z,16928.00
2019-04-29T06:53:31.614Z,18144.00
2019-04-29T06:54:23.769Z,17440.00
2019-04-29T06:55:23.748Z,16800.00
2019-04-29T06:56:31.556Z,16896.00
2019-04-29T06:57:23.738Z,16640.00
2019-04-29T06:58:32.581Z,16264.00
2019-04-29T06:59:24.758Z,16156.00
2019-04-29T07:00:32.548Z,15716.00
2019-04-29T07:01:23.695Z,15804.00
2019-04-29T07:02:23.671Z,16704.00
2019-04-29T07:03:31.508Z,16800.00
2019-04-29T07:04:23.660Z,16640.00
2019-04-29T07:05:23.658Z,16544.00
2019-04-29T07:06:31.484Z,15564.00
2019-04-29T07:07:31.426Z,15172.00
2019-04-29T07:08:23.628Z,16392.00
2019-04-29T07:09:23.594Z,17216.00
2019-04-29T07:10:26.956Z,18176.00
2019-04-29T07:11:23.691Z,19488.00
2019-04-29T07:12:23.554Z,20768.00
2019-04-29T07:13:31.414Z,21632.00
2019-04-29T07:14:33.321Z,22464.00
2019-04-29T07:15:31.964Z,23136.00
2019-04-29T07:16:32.036Z,23584.00
2019-04-29T07:17:31.345Z,22816.00
2019-04-29T07:18:23.504Z,21792.00
2019-04-29T07:19:26.687Z,21088.00
2019-04-29T07:20:23.465Z,20512.00
2019-04-29T07:21:23.506Z,20640.00
2019-04-29T07:22:25.690Z,20768.00
2019-04-29T07:23:23.435Z,21824.00
2019-04-29T07:24:23.439Z,22560.00
2019-04-29T07:25:27.209Z,22784.00
2019-04-29T07:26:24.431Z,22976.00
2019-04-29T07:27:23.409Z,24320.00
2019-04-29T07:28:23.393Z,23872.00
2019-04-29T07:29:32.712Z,23680.00
2019-04-29T07:30:31.220Z,23104.00
2019-04-29T07:31:33.223Z,23040.00
2019-04-29T07:32:23.343Z,23872.00
2019-04-29T07:33:24.520Z,24448.00
2019-04-29T07:34:23.324Z,26048.00
2019-04-29T07:35:31.185Z,27040.00
2019-04-29T07:36:23.946Z,29792.00
2019-04-29T07:37:23.322Z,29632.00
2019-04-29T07:38:23.280Z,30080.00
2019-04-29T07:39:26.838Z,30432.00
2019-04-29T07:40:24.282Z,29728.00
2019-04-29T07:41:23.250Z,32640.00
2019-04-29T07:42:25.076Z,33568.00
2019-04-29T07:43:24.233Z,32224.00
2019-04-29T07:44:23.221Z,32960.00
2019-04-29T07:45:23.719Z,33056.00
2019-04-29T07:46:23.181Z,30976.00
2019-04-29T07:47:24.882Z,31328.00
2019-04-29T07:48:24.159Z,30656.00
2019-04-29T07:49:23.160Z,29248.00
2019-04-29T07:50:26.830Z,28448.00
2019-04-29T07:51:24.140Z,29184.00
2019-04-29T07:52:23.147Z,30144.00
2019-04-29T07:53:35.009Z,30656.00
2019-04-29T07:54:24.107Z,30240.00
2019-04-29T07:55:26.119Z,28768.00
2019-04-29T07:56:24.081Z,28736.00
2019-04-29T07:57:23.097Z,29568.00
2019-04-29T07:58:27.198Z,28736.00
2019-04-29T07:59:23.056Z,27872.00
2019-04-29T08:00:23.043Z,27872.00
2019-04-29T08:01:24.644Z,28608.00
2019-04-29T08:02:23.025Z,28352.00
2019-04-29T08:03:23.003Z,27456.00
2019-04-29T08:04:22.987Z,27744.00
2019-04-29T08:05:22.983Z,26976.00
2019-04-29T08:06:23.000Z,28064.00
2019-04-29T08:07:22.955Z,28256.00
2019-04-29T08:08:22.975Z,27552.00
2019-04-29T08:09:22.936Z,26880.00
2019-04-29T08:10:24.056Z,27808.00
2019-04-29T08:11:22.913Z,28256.00
2019-04-29T08:12:22.903Z,28960.00
2019-04-29T08:13:22.921Z,31488.00
2019-04-29T08:14:22.894Z,33024.00
2019-04-29T08:15:22.883Z,33664.00
2019-04-29T08:16:22.861Z,34912.00
2019-04-29T08:17:22.843Z,34784.00
2019-04-29T08:18:22.868Z,35200.00
2019-04-29T08:19:24.752Z,32544.00
2019-04-29T08:20:23.819Z,31360.00
2019-04-29T08:21:22.841Z,35008.00
2019-04-29T08:22:27.420Z,34752.00
2019-04-29T08:23:23.821Z,33696.00
2019-04-29T08:24:22.860Z,29088.00
2019-04-29T08:25:26.033Z,28000.00
2019-04-29T08:26:22.742Z,26752.00
2019-04-29T08:27:22.740Z,25600.00
2019-04-29T08:28:22.727Z,24832.00
2019-04-29T08:29:22.750Z,24512.00
2019-04-29T08:30:22.707Z,24352.00
2019-04-29T08:31:22.700Z,24224.00
2019-04-29T08:32:22.693Z,24224.00
2019-04-29T08:33:22.669Z,24576.00
2019-04-29T08:34:23.091Z,25344.00
2019-04-29T08:35:22.638Z,26144.00
2019-04-29T08:36:22.645Z,26656.00
2019-04-29T08:37:24.949Z,27072.00
2019-04-29T08:38:22.621Z,27168.00
2019-04-29T08:39:25.044Z,26688.00
2019-04-29T08:40:23.598Z,25888.00
2019-04-29T08:41:28.476Z,24736.00
2019-04-29T08:42:23.578Z,23552.00
2019-04-29T08:43:22.584Z,22336.00
2019-04-29T08:44:22.558Z,21312.00
2019-04-29T08:45:22.580Z,20416.00
2019-04-29T08:46:22.534Z,18400.00
2019-04-29T08:47:23.642Z,19040.00
2019-04-29T08:48:23.516Z,20352.00
2019-04-29T08:49:22.498Z,21536.00
2019-04-29T08:50:22.533Z,23264.00
2019-04-29T08:51:22.485Z,24704.00
2019-04-29T08:52:22.457Z,25184.00
2019-04-29T08:53:22.443Z,24192.00
2019-04-29T08:54:22.462Z,22592.00
2019-04-29T08:55:22.441Z,21280.00
2019-04-29T08:56:22.432Z,20544.00
2019-04-29T08:57:22.415Z,19712.00
2019-04-29T08:58:22.412Z,18752.00
2019-04-29T08:59:24.409Z,17792.00
2019-04-29T09:00:22.377Z,16608.00
2019-04-29T09:01:24.620Z,15604.00
2019-04-29T09:02:34.403Z,14728.00
2019-04-29T09:03:24.400Z,13968.00
2019-04-29T09:04:22.352Z,13144.00
2019-04-29T09:05:22.324Z,12344.00
2019-04-29T09:06:22.352Z,11344.00
2019-04-29T09:07:23.195Z,10292.00
2019-04-29T09:08:22.315Z,9588.00
2019-04-29T09:09:29.325Z,9136.00
2019-04-29T09:10:23.291Z,9000.00
2019-04-29T09:11:22.296Z,9852.00
2019-04-29T09:12:24.207Z,11432.00
2019-04-29T09:13:22.239Z,13384.00
2019-04-29T09:14:22.222Z,14328.00
2019-04-29T09:15:22.218Z,14240.00
2019-04-29T09:16:22.211Z,13940.00
2019-04-29T09:17:22.218Z,14092.00
2019-04-29T09:18:22.191Z,15184.00
2019-04-29T09:19:22.169Z,16336.00
2019-04-29T09:20:22.180Z,17056.00
2019-04-29T09:21:22.148Z,17152.00
2019-04-29T09:22:22.157Z,16608.00
2019-04-29T09:23:22.138Z,16204.00
2019-04-29T09:24:22.117Z,16400.00
2019-04-29T09:25:26.220Z,16864.00
2019-04-29T09:26:24.230Z,17152.00
2019-04-29T09:27:22.108Z,17728.00
2019-04-29T09:28:26.992Z,18176.00
2019-04-29T09:29:23.064Z,17248.00
2019-04-29T09:30:22.060Z,14608.00
2019-04-29T09:31:22.046Z,12444.00
2019-04-29T09:32:22.056Z,11916.00
2019-04-29T09:33:22.026Z,12996.00
2019-04-29T09:34:24.814Z,14452.00
2019-04-29T09:35:33.810Z,14720.00
2019-04-29T09:36:23.009Z,14852.00
2019-04-29T09:37:23.011Z,15312.00
2019-04-29T09:38:22.014Z,15692.00
2019-04-29T09:39:21.980Z,16248.00
2019-04-29T09:40:21.962Z,16608.00
2019-04-29T09:41:21.952Z,15476.00
2019-04-29T09:42:21.962Z,14808.00
2019-04-29T09:43:25.987Z,14780.00
2019-04-29T09:44:22.930Z,14328.00
2019-04-29T09:45:24.353Z,14568.00
2019-04-29T09:46:34.174Z,15308.00
2019-04-29T09:47:21.910Z,15796.00
2019-04-29T09:48:22.268Z,15612.00
2019-04-29T09:49:21.935Z,15960.00
2019-04-29T09:50:21.885Z,17280.00
2019-04-29T09:51:22.655Z,18144.00
2019-04-29T09:52:22.873Z,17376.00
2019-04-29T09:53:21.866Z,15704.00
2019-04-29T09:54:21.846Z,13960.00
2019-04-29T09:55:21.808Z,12548.00
2019-04-29T09:56:21.804Z,11284.00
2019-04-29T09:57:21.814Z,10176.00
2019-04-29T09:58:21.770Z,11200.00
2019-04-29T09:59:21.750Z,10224.00
2019-04-29T10:00:21.758Z,8544.00
2019-04-29T10:01:21.743Z,7788.00
2019-04-29T10:02:21.752Z,8356.00
2019-04-29T10:03:21.771Z,9760.00
2019-04-29T10:04:21.706Z,11124.00
2019-04-29T10:05:21.720Z,10976.00
2019-04-29T10:06:21.700Z,10108.00
2019-04-29T10:07:21.669Z,8464.00
2019-04-29T10:08:21.728Z,8856.00
2019-04-29T10:09:21.652Z,9228.00
2019-04-29T10:10:21.662Z,7660.00
2019-04-29T10:11:21.626Z,6944.00
2019-04-29T10:12:21.616Z,6924.00
2019-04-29T10:13:21.633Z,6536.00
2019-04-29T10:14:21.602Z,5768.00
2019-04-29T10:15:21.666Z,5520.00
2019-04-29T10:16:21.618Z,5560.00
2019-04-29T10:17:21.568Z,5584.00
2019-04-29T10:18:25.172Z,5828.00
2019-04-29T10:19:22.537Z,5716.00
2019-04-29T10:20:21.539Z,5504.00
2019-04-29T10:21:23.309Z,5424.00
2019-04-29T10:22:21.539Z,5084.00
2019-04-29T10:23:21.527Z,4888.00
2019-04-29T10:24:21.514Z,4840.00
2019-04-29T10:25:21.479Z,4908.00
2019-04-29T10:26:21.499Z,5004.00
2019-04-29T10:27:21.495Z,5072.00
2019-04-29T10:28:21.489Z,4924.00
2019-04-29T10:29:21.468Z,4864.00
2019-04-29T10:30:21.490Z,4704.00
2019-04-29T10:31:21.467Z,4544.00
2019-04-29T10:32:21.451Z,4572.00
2019-04-29T10:33:23.054Z,4620.00
2019-04-29T10:34:21.373Z,4464.00
2019-04-29T10:35:21.395Z,4324.00
2019-04-29T10:36:21.875Z,4388.00
2019-04-29T10:37:23.818Z,4428.00
2019-04-29T10:38:22.352Z,4460.00
2019-04-29T10:39:22.689Z,4924.00
2019-04-29T10:40:21.343Z,5284.00
2019-04-29T10:41:21.311Z,5400.00
2019-04-29T10:42:22.930Z,5196.00
2019-04-29T10:43:21.291Z,5096.00
2019-04-29T10:44:21.293Z,5428.00
2019-04-29T10:45:21.273Z,5520.00
2019-04-29T10:46:21.283Z,5836.00
2019-04-29T10:47:21.379Z,6540.00
2019-04-29T10:48:21.295Z,6588.00
2019-04-29T10:49:21.437Z,7424.00
2019-04-29T10:50:23.785Z,7324.00
2019-04-29T10:51:23.276Z,7284.00
2019-04-29T10:52:22.289Z,7232.00
2019-04-29T10:53:21.225Z,7208.00
2019-04-29T10:54:21.259Z,7956.00
2019-04-29T10:55:21.691Z,7800.00
2019-04-29T10:56:21.190Z,7900.00
2019-04-29T10:57:21.239Z,8648.00
2019-04-29T10:58:21.887Z,8416.00
2019-04-29T10:59:35.341Z,9088.00
2019-04-29T11:00:23.467Z,9508.00
2019-04-29T11:01:21.133Z,8596.00
2019-04-29T11:02:21.328Z,7760.00
2019-04-29T11:03:25.073Z,7448.00
2019-04-29T11:04:21.067Z,8448.00
2019-04-29T11:05:21.877Z,7940.00
2019-04-29T11:06:35.968Z,8040.00
2019-04-29T11:07:26.519Z,9068.00
2019-04-29T11:08:22.109Z,9532.00
2019-04-29T11:09:21.049Z,9600.00
2019-04-29T11:10:25.209Z,8564.00
2019-04-29T11:11:23.311Z,7764.00
2019-04-29T11:12:22.039Z,7156.00
2019-04-29T11:13:21.007Z,7984.00
2019-04-29T11:14:21.033Z,7064.00
2019-04-29T11:15:20.935Z,7696.00
2019-04-29T11:16:22.852Z,6708.00
2019-04-29T11:17:21.929Z,5360.00
2019-04-29T11:18:23.139Z,6708.00
2019-04-29T11:19:20.908Z,6732.00
2019-04-29T11:20:21.634Z,6788.00
2019-04-29T11:21:20.873Z,6816.00
2019-04-29T11:22:20.845Z,7872.00
2019-04-29T11:23:21.034Z,7648.00
2019-04-29T11:24:20.843Z,6856.00
2019-04-29T11:25:20.875Z,7140.00
2019-04-29T11:26:20.855Z,7300.00
2019-04-29T11:27:20.828Z,6424.00
2019-04-29T11:28:22.505Z,6548.00
2019-04-29T11:29:26.529Z,7240.00
2019-04-29T11:30:21.807Z,6952.00
2019-04-29T11:31:20.793Z,6256.00
2019-04-29T11:32:20.772Z,6852.00
2019-04-29T11:33:20.840Z,6784.00
2019-04-29T11:34:20.839Z,6944.00
2019-04-29T11:35:24.551Z,7436.00
2019-04-29T11:36:21.922Z,7808.00
2019-04-29T11:37:23.880Z,8376.00
2019-04-29T11:38:20.909Z,6592.00
2019-04-29T11:39:20.872Z,7720.00
2019-04-29T11:40:24.495Z,7244.00
2019-04-29T11:41:21.670Z,6416.00
2019-04-29T11:42:20.646Z,7564.00
2019-04-29T11:43:20.648Z,8644.00
2019-04-29T11:44:21.861Z,7288.00
2019-04-29T11:45:21.610Z,5968.00
2019-04-29T11:46:21.139Z,5388.00
2019-04-29T11:47:21.012Z,5112.00
2019-04-29T11:48:20.600Z,5624.00
2019-04-29T11:49:20.588Z,5032.00
2019-04-29T11:50:20.548Z,5740.00
2019-04-29T11:51:20.546Z,6528.00
2019-04-29T11:52:23.660Z,6696.00
2019-04-29T11:53:21.684Z,5312.00
2019-04-29T11:54:20.537Z,6072.00
2019-04-29T11:55:20.523Z,5068.00
2019-04-29T11:56:20.496Z,5076.00
2019-04-29T11:57:20.492Z,5732.00
2019-04-29T11:58:20.504Z,6132.00
2019-04-29T11:59:20.603Z,6736.00
2019-04-29T12:00:30.208Z,4996.00
2019-04-29T12:01:20.500Z,5316.00
2019-04-29T12:02:24.278Z,4920.00
2019-04-29T12:03:21.446Z,6364.00
2019-04-29T12:04:20.444Z,5312.00
2019-04-29T12:05:20.506Z,4792.00
2019-04-29T12:06:21.089Z,4228.00
2019-04-29T12:07:21.242Z,5292.00
2019-04-29T12:08:20.688Z,4364.00
2019-04-29T12:09:20.499Z,4400.00
2019-04-29T12:10:20.356Z,5084.00
2019-04-29T12:11:20.621Z,6104.00
2019-04-29T12:12:20.317Z,4712.00
2019-04-29T12:13:27.100Z,4156.00
2019-04-29T12:14:21.295Z,4568.00
2019-04-29T12:15:20.322Z,3988.00
2019-04-29T12:16:24.641Z,4256.00
2019-04-29T12:17:21.302Z,4472.00
2019-04-29T12:18:20.284Z,4036.00
2019-04-29T12:19:21.323Z,4316.00
2019-04-29T12:20:20.293Z,5592.00
2019-04-29T12:21:20.271Z,5448.00